Main page


Airports :

Porto Alegre, Rio Grande do Sul, Brazil

Salgado Filho International Airport

latitude: 30-00S, longitude: 051-11W, elevation: 3 m

Current weather observation

The report was made 48 minutes ago, at 17:00 UTC
Wind 4 kt from the West/Northwest
Temperature 19°C
Humidity 88%
Pressure 1014 hPa
Visibility 10 km or more
Few clouds at a height of 1000 ft
Broken clouds at a height of 6000 ft

METAR: SBPA 201700Z 29004KT 9999 FEW010 BKN060 19/17 Q1014

Time: 14:48 (17:48 UTC)


The report was made 2 hours and 18 minutes ago, at 15:30 UTC
Forecast valid from 20 at 18 UTC to 21 at 18 UTC
Wind 6 kt from the West/Northwest
Visibility 10 km or more
Scattered clouds at a height of 3000 ft
from 20 at 19 UTC to 20 at 21 UTC
Wind 8 kt from the Southwest
Visibility 10 km or more
no clouds below 1500 m and no cumulonimbus

TAF: SBPA 201530Z 2018/2118 30006KT 9999 SCT030 TN17/2108Z TX26/2117Z BECMG 2019/2021 22008KT CAVOK RMK PEB

Weather observations and forecasts of more than 4000 airports (METAR and TAF reports).

The available stations are represented by yellow and red dots on the map.

Hover mouse over dot to see the name of the station.

Then click to see weather observations and forecasts.

To change the map : click on the green buttons with a black cross to zoom in, on the green button with a dash to zoom out, or on the green arrows for adjacent maps.